Time;durP1;ratioP1;P1;durP2;ratioP2;P2;SDS_P1;SDS_P2;PMS_P1;PMS_P2;Temp;Humidity;BMP_temperature;BMP_pressure;BME280_temperature;BME280_humidity;BME280_pressure;Samples;Min_cycle;Max_cycle;Signal;HPM_P1;HPM_P2
2024/03/02 00:05:02;;;;;;;2.33;1.27;;;;;;;8.19;77.32;100143.72;15825600;28;20496;-51
2024/03/02 00:12:36;;;;;;;4.55;2.25;;;;;;;8.26;77.71;100136.50;15829549;28;20031;-49
2024/03/02 00:20:22;;;;;;;1.95;1.17;;;;;;;8.33;78.10;100134.63;15834394;28;20051;-50
2024/03/02 00:27:56;;;;;;;1.23;1.13;;;;;;;8.36;77.56;100136.06;15851758;28;20135;-50
2024/03/02 00:35:30;;;;;;;;;;;;;;;8.41;78.04;100129.09;15837026;28;20120;-51
2024/03/02 00:43:04;;;;;;;4.45;1.45;;;;;;;8.43;78.89;100127.00;15842896;28;20339;-53
2024/03/02 00:50:40;;;;;;;1.77;1.55;;;;;;;8.49;78.62;100119.19;15878090;28;20053;-51
2024/03/02 00:58:13;;;;;;;0.82;0.82;;;;;;;8.58;78.41;100125.91;15838229;28;20066;-51
2024/03/02 01:05:55;;;;;;;1.67;1.25;;;;;;;8.55;79.01;100118.34;15799067;28;20044;-54
2024/03/02 01:13:30;;;;;;;1.45;1.33;;;;;;;8.62;78.88;100127.97;15819170;28;20126;-53
2024/03/02 01:21:10;;;;;;;2.50;1.85;;;;;;;8.50;79.54;100108.28;15781019;28;20029;-50
2024/03/02 01:28:43;;;;;;;0.93;0.90;;;;;;;8.56;79.69;100117.28;15762193;28;20047;-52
2024/03/02 01:36:18;;;;;;;1.65;1.27;;;;;;;8.54;80.15;100098.78;15761067;28;20436;-52
2024/03/02 01:43:52;;;;;;;2.65;2.17;;;;;;;8.64;78.97;100083.09;15783775;28;20140;-51
2024/03/02 01:51:27;;;;;;;4.10;3.70;;;;;;;8.53;79.04;100077.59;15740011;28;20389;-51
2024/03/02 01:59:03;;;;;;;2.50;1.75;;;;;;;8.59;79.00;100072.22;15763668;28;20047;-50
2024/03/02 02:06:38;;;;;;;1.92;1.83;;;;;;;8.21;80.24;100060.63;15769387;28;20059;-50
2024/03/02 02:14:12;;;;;;;2.55;1.77;;;;;;;8.15;81.33;100065.78;15775614;28;20042;-51
2024/03/02 02:21:47;;;;;;;0.88;0.88;;;;;;;8.40;79.60;100059.78;15761198;28;20042;-50
2024/03/02 02:29:20;;;;;;;0.40;0.40;;;;;;;8.50;79.96;100053.97;15749701;28;20116;-54
2024/03/02 02:36:55;;;;;;;;;;;;;;;8.32;80.98;100060.78;15800467;28;20405;-51
2024/03/02 02:44:29;;;;;;;0.75;0.73;;;;;;;7.82;84.58;100063.19;15750625;28;19936;-50
2024/03/02 02:52:06;;;;;;;0.60;0.60;;;;;;;8.34;81.53;100069.41;15750123;28;20048;-52
2024/03/02 02:59:41;;;;;;;1.50;1.25;;;;;;;8.41;82.24;100072.09;15742365;28;20044;-51
2024/03/02 03:07:16;;;;;;;1.85;1.75;;;;;;;8.01;85.28;100066.84;15769565;28;20036;-50
2024/03/02 03:14:53;;;;;;;0.88;0.88;;;;;;;8.50;83.02;100059.31;15761304;28;20040;-51
2024/03/02 03:22:28;;;;;;;2.50;2.08;;;;;;;8.11;84.67;100037.84;15780020;28;20056;-50
2024/03/02 03:30:02;;;;;;;1.88;1.73;;;;;;;7.76;87.32;100049.88;15752248;28;20047;-52
2024/03/02 03:37:37;;;;;;;27.17;4.57;;;;;;;8.18;86.85;100054.69;15759591;28;20044;-54
2024/03/02 03:45:15;;;;;;;1.17;1.17;;;;;;;8.16;86.57;100059.44;15763690;28;20036;-54
2024/03/02 03:52:49;;;;;;;1.85;1.10;;;;;;;8.44;85.29;100058.31;15770112;28;20040;-51
2024/03/02 04:00:23;;;;;;;1.83;1.73;;;;;;;8.11;86.91;100069.09;15777948;28;20055;-51
2024/03/02 04:07:58;;;;;;;9.60;2.60;;;;;;;8.64;85.25;100076.94;15760757;28;20044;-51
2024/03/02 04:15:33;;;;;;;3.70;2.92;;;;;;;9.08;83.48;100083.25;15805391;22;20048;-48
2024/03/02 04:23:10;;;;;;;2.05;1.67;;;;;;;9.18;83.06;100087.06;15835665;28;20042;-49
2024/03/02 04:30:43;;;;;;;2.88;1.10;;;;;;;9.29;82.01;100084.75;15845324;28;20126;-47
2024/03/02 04:38:19;;;;;;;2.67;2.03;;;;;;;8.97;83.30;100094.66;15849166;28;20047;-48
2024/03/02 04:45:53;;;;;;;1.77;1.65;;;;;;;8.56;84.38;100101.25;15786333;28;20062;-48
2024/03/02 04:53:28;;;;;;;3.40;1.85;;;;;;;8.52;84.87;100110.72;15811372;28;20442;-50
2024/03/02 05:01:01;;;;;;;1.83;1.73;;;;;;;8.65;85.36;100122.19;15798375;28;20412;-47
2024/03/02 05:08:36;;;;;;;8.45;2.28;;;;;;;8.79;84.75;100120.28;15834033;28;20508;-49
2024/03/02 05:16:10;;;;;;;1.25;1.20;;;;;;;8.50;84.73;100134.22;15805636;28;20044;-48
2024/03/02 05:23:45;;;;;;;0.77;0.77;;;;;;;8.31;86.51;100133.22;15770953;28;20040;-52
2024/03/02 05:31:20;;;;;;;2.42;1.83;;;;;;;8.22;86.27;100140.63;15779523;28;20037;-48
2024/03/02 05:38:55;;;;;;;3.47;1.85;;;;;;;8.50;85.73;100147.56;15760226;28;20044;-48
2024/03/02 05:46:30;;;;;;;1.75;1.42;;;;;;;8.48;85.36;100158.47;15756810;28;20036;-48
2024/03/02 05:54:11;;;;;;;2.13;2.00;;;;;;;8.55;84.92;100161.13;15754569;28;20040;-47
2024/03/02 06:01:51;;;;;;;0.73;0.70;;;;;;;8.67;84.09;100154.06;15730214;28;20596;-50
2024/03/02 06:09:26;;;;;;;1.67;1.58;;;;;;;8.96;83.42;100163.44;15745488;28;20105;-48
2024/03/02 06:17:01;;;;;;;2.45;1.95;;;;;;;8.81;83.70;100170.91;15792193;28;20143;-49
2024/03/02 06:24:39;;;;;;;2.22;2.05;;;;;;;8.36;84.90;100154.78;15787490;28;20048;-51
2024/03/02 06:32:17;;;;;;;2.60;2.40;;;;;;;8.10;86.75;100169.84;15787917;28;20108;-49
2024/03/02 06:39:52;;;;;;;1.65;1.55;;;;;;;8.47;85.56;100175.56;15770086;28;20036;-51
2024/03/02 06:47:27;;;;;;;2.20;2.00;;;;;;;8.68;84.34;100172.63;15758452;28;20036;-51
2024/03/02 06:55:02;;;;;;;1.88;1.48;;;;;;;8.75;83.93;100180.59;15750577;28;20435;-50
2024/03/02 07:02:36;;;;;;;0.82;0.65;;;;;;;8.68;84.05;100186.00;15772600;28;20044;-48
2024/03/02 07:10:11;;;;;;;3.05;2.40;;;;;;;8.62;83.72;100186.00;15764092;28;20120;-48
2024/03/02 07:17:45;;;;;;;10.95;2.08;;;;;;;8.64;84.30;100194.66;15799785;28;20039;-48
2024/03/02 07:25:20;;;;;;;1.45;1.35;;;;;;;8.93;83.37;100196.78;15828940;28;20077;-48
2024/03/02 07:32:54;;;;;;;1.15;1.05;;;;;;;8.96;83.39;100203.59;15828005;28;20120;-50
2024/03/02 07:40:29;;;;;;;2.10;1.90;;;;;;;8.61;84.52;100225.31;15808157;28;20101;-49
2024/03/02 07:48:04;;;;;;;0.45;0.45;;;;;;;8.38;86.07;100233.78;15824991;28;20043;-49
2024/03/02 07:55:40;;;;;;;2.30;2.10;;;;;;;8.61;86.08;100241.34;15822343;28;20441;-49
2024/03/02 08:03:13;;;;;;;0.73;0.73;;;;;;;8.54;85.96;100243.25;15816644;28;20064;-48
2024/03/02 08:10:48;;;;;;;4.32;1.33;;;;;;;8.84;85.79;100248.91;15824984;28;20097;-47
2024/03/02 08:18:22;;;;;;;2.38;2.03;;;;;;;8.81;85.02;100249.34;15836426;28;20039;-51
2024/03/02 08:25:57;;;;;;;1.65;1.55;;;;;;;8.61;85.98;100251.25;15833282;28;20118;-51
2024/03/02 08:33:30;;;;;;;1.90;1.67;;;;;;;8.61;85.67;100272.63;15855726;28;20036;-51
2024/03/02 08:41:06;;;;;;;1.42;1.33;;;;;;;8.86;84.64;100276.31;15831465;28;20154;-48
2024/03/02 08:48:40;;;;;;;0.80;0.80;;;;;;;9.31;83.26;100287.03;15820715;28;20036;-47
2024/03/02 08:56:15;;;;;;;1.88;1.77;;;;;;;9.00;83.44;100290.47;15855286;28;20044;-50
2024/03/02 09:03:50;;;;;;;2.67;2.45;;;;;;;8.89;84.16;100291.09;15845641;28;20031;-49
2024/03/02 09:11:25;;;;;;;7.60;1.58;;;;;;;8.99;84.05;100296.84;15821285;28;20050;-48
2024/03/02 09:18:59;;;;;;;2.25;2.08;;;;;;;9.02;83.36;100298.28;15829094;28;20106;-49
2024/03/02 09:26:34;;;;;;;0.98;0.98;;;;;;;9.04;83.37;100305.03;15831723;28;20509;-47
2024/03/02 09:34:08;;;;;;;1.45;1.35;;;;;;;9.79;80.87;100309.84;15824301;28;20092;-48
2024/03/02 09:41:43;;;;;;;1.67;1.58;;;;;;;9.99;80.13;100307.06;15830118;28;20047;-47
2024/03/02 09:49:17;;;;;;;1.42;1.33;;;;;;;9.71;80.33;100297.56;15812883;28;20039;-52
2024/03/02 09:56:53;;;;;;;14.57;3.05;;;;;;;9.95;78.62;100302.13;15823251;28;20092;-48
2024/03/02 10:04:27;;;;;;;3.00;1.27;;;;;;;9.99;79.23;100301.72;15836538;28;20050;-50
2024/03/02 10:12:07;;;;;;;5.80;4.03;;;;;;;10.08;78.53;100301.22;15868420;28;20054;-50
2024/03/02 10:19:41;;;;;;;5.20;3.97;;;;;;;10.27;78.68;100302.16;15814149;22;20488;-53
2024/03/02 10:27:18;;;;;;;1.95;1.20;;;;;;;10.52;77.41;100293.25;15759224;28;20067;-49
2024/03/02 10:34:55;;;;;;;0.90;0.90;;;;;;;10.55;75.95;100282.91;15749307;28;20139;-49
2024/03/02 10:42:33;;;;;;;2.17;1.27;;;;;;;10.90;74.29;100301.94;15744102;28;20477;-56
2024/03/02 10:50:09;;;;;;;0.68;0.68;;;;;;;11.39;73.49;100296.63;15753173;28;20048;-51
2024/03/02 10:57:51;;;;;;;1.27;1.23;;;;;;;11.29;73.64;100304.41;15765817;28;20048;-50
2024/03/02 11:05:29;;;;;;;2.23;1.50;;;;;;;10.58;74.63;100293.19;15790204;28;20098;-50
2024/03/02 11:13:09;;;;;;;0.40;0.40;;;;;;;11.21;71.99;100300.97;15751057;28;20053;-51
2024/03/02 11:20:44;;;;;;;0.57;0.57;;;;;;;11.77;70.46;100285.56;15696044;28;20033;-50
2024/03/02 11:28:36;;;;;;;0.57;0.50;;;;;;;12.31;69.74;100283.72;15704864;28;20033;-51
2024/03/02 11:36:10;;;;;;;7.03;2.13;;;;;;;12.38;67.71;100278.22;15706002;28;20075;-53
2024/03/02 11:43:46;;;;;;;1.38;1.30;;;;;;;12.90;67.47;100283.69;15698314;28;20126;-53
2024/03/02 11:51:19;;;;;;;1.15;1.05;;;;;;;13.58;65.92;100291.03;15675659;28;20059;-49
2024/03/02 11:58:59;;;;;;;1.35;1.25;;;;;;;13.82;64.67;100285.53;15689789;28;20052;-50
2024/03/02 12:06:38;;;;;;;1.42;1.33;;;;;;;13.79;63.71;100293.03;15719315;28;20033;-49
2024/03/02 12:14:14;;;;;;;1.67;1.45;;;;;;;15.36;58.43;100284.06;15719639;28;20401;-51
2024/03/02 12:21:51;;;;;;;1.08;0.63;;;;;;;15.11;59.37;100279.13;15781520;28;20171;-53
2024/03/02 12:29:26;;;;;;;1.17;1.13;;;;;;;15.91;55.85;100270.31;15767582;28;20115;-50
2024/03/02 12:37:00;;;;;;;1.20;0.57;;;;;;;15.49;57.60;100256.63;15747542;28;20048;-50
2024/03/02 12:44:40;;;;;;;2.90;2.05;;;;;;;16.47;53.98;100254.50;15793956;28;20048;-48
2024/03/02 12:52:14;;;;;;;1.20;0.93;;;;;;;15.29;57.49;100260.72;15770604;28;20062;-51
2024/03/02 12:59:50;;;;;;;2.83;1.20;;;;;;;15.16;57.26;100271.13;15753768;28;20047;-52
2024/03/02 13:07:24;;;;;;;1.13;0.90;;;;;;;14.84;57.92;100257.47;15753586;28;20051;-50
2024/03/02 13:14:59;;;;;;;5.10;1.33;;;;;;;14.91;59.02;100256.19;15759291;28;20049;-48
2024/03/02 13:22:33;;;;;;;0.98;0.60;;;;;;;14.57;59.23;100244.66;15717818;28;20051;-49
2024/03/02 13:30:10;;;;;;;3.72;2.00;;;;;;;15.14;57.87;100247.00;15697137;28;20051;-48
2024/03/02 13:37:45;;;;;;;1.35;1.25;;;;;;;14.73;58.33;100254.59;15720235;28;20043;-48
2024/03/02 13:45:20;;;;;;;0.70;0.45;;;;;;;14.46;59.27;100246.38;15688037;28;20054;-51
2024/03/02 13:52:58;;;;;;;3.22;1.42;;;;;;;14.51;57.67;100245.66;15708259;28;20036;-51
2024/03/02 14:00:33;;;;;;;2.55;1.13;;;;;;;14.29;57.79;100246.38;15718951;28;20071;-50
2024/03/02 14:08:08;;;;;;;2.78;2.00;;;;;;;14.20;57.04;100241.66;15689317;28;20044;-51
2024/03/02 14:15:44;;;;;;;3.78;1.65;;;;;;;13.90;57.76;100250.06;15683690;28;20047;-50
2024/03/02 14:23:17;;;;;;;1.77;0.60;;;;;;;13.84;58.19;100245.63;15692810;28;20041;-48
2024/03/02 14:30:53;;;;;;;0.75;0.75;;;;;;;13.66;58.53;100243.97;15703268;28;20044;-48
2024/03/02 14:38:31;;;;;;;0.52;0.52;;;;;;;13.76;58.45;100241.47;15705005;28;20041;-50
2024/03/02 14:46:09;;;;;;;0.90;0.68;;;;;;;14.08;58.22;100239.03;15680657;28;20376;-51
2024/03/02 14:53:43;;;;;;;1.73;1.10;;;;;;;13.65;57.81;100235.06;15685364;28;20037;-51
2024/03/02 15:01:22;;;;;;;1.10;1.00;;;;;;;13.67;60.22;100232.16;15676676;28;20052;-48
2024/03/02 15:08:56;;;;;;;0.50;0.50;;;;;;;14.07;58.16;100234.69;15693171;28;20048;-51
2024/03/02 15:16:31;;;;;;;0.10;0.10;;;;;;;13.65;57.88;100231.56;15730072;28;20064;-48
2024/03/02 15:24:07;;;;;;;0.82;0.70;;;;;;;13.64;58.31;100232.63;15759120;28;20497;-52
2024/03/02 15:31:43;;;;;;;1.73;1.17;;;;;;;13.42;58.45;100221.69;15787022;28;20501;-47
2024/03/02 15:39:18;;;;;;;2.05;1.52;;;;;;;13.52;59.70;100225.41;15800977;28;20040;-53
2024/03/02 15:46:53;;;;;;;0.63;0.63;;;;;;;13.14;60.47;100220.59;15775516;28;20040;-49
2024/03/02 15:54:27;;;;;;;0.85;0.82;;;;;;;13.05;62.13;100221.22;15784098;28;20041;-48
2024/03/02 16:02:04;;;;;;;1.15;0.95;;;;;;;13.30;61.90;100229.84;15777282;28;20068;-52
2024/03/02 16:09:38;;;;;;;1.27;1.17;;;;;;;13.19;62.89;100228.78;15795423;28;20397;-52
2024/03/02 16:17:15;;;;;;;0.60;0.57;;;;;;;13.12;63.67;100236.22;15771188;22;20389;-53
2024/03/02 16:24:49;;;;;;;1.55;1.45;;;;;;;12.92;61.86;100233.13;15796583;28;20131;-51
2024/03/02 16:32:24;;;;;;;3.00;0.85;;;;;;;12.30;63.15;100236.31;15776559;28;20580;-50
2024/03/02 16:39:58;;;;;;;0.10;0.10;;;;;;;12.30;63.50;100238.19;15778035;28;20612;-52
2024/03/02 16:47:38;;;;;;;1.13;1.02;;;;;;;12.27;63.56;100244.88;15787237;28;20040;-53
2024/03/02 16:55:14;;;;;;;2.28;1.88;;;;;;;11.88;64.90;100255.22;15800783;28;20396;-51
2024/03/02 17:02:49;;;;;;;0.50;0.50;;;;;;;11.80;66.38;100254.69;15808960;28;20318;-51
2024/03/02 17:10:23;;;;;;;0.63;0.63;;;;;;;11.85;66.03;100261.06;15790330;28;20706;-50
2024/03/02 17:18:04;;;;;;;1.33;1.23;;;;;;;11.67;66.76;100278.06;15806211;28;20082;-50
2024/03/02 17:25:37;;;;;;;1.10;1.02;;;;;;;11.23;68.48;100284.63;15768936;28;20470;-53
2024/03/02 17:33:12;;;;;;;0.43;0.43;;;;;;;11.49;68.38;100284.28;15740123;28;20171;-48
2024/03/02 17:40:46;;;;;;;1.20;0.57;;;;;;;11.49;67.53;100294.22;15741261;28;20513;-50
2024/03/02 17:48:21;;;;;;;0.77;0.55;;;;;;;10.93;69.81;100300.69;15767884;28;20503;-51
2024/03/02 17:55:56;;;;;;;3.13;1.13;;;;;;;11.24;68.57;100308.59;15793989;28;20125;-54
2024/03/02 18:03:34;;;;;;;0.60;0.60;;;;;;;10.97;69.45;100302.69;15788625;28;20036;-51
2024/03/02 18:11:08;;;;;;;1.08;0.75;;;;;;;11.21;68.47;100302.84;15741099;28;20132;-51
2024/03/02 18:18:43;;;;;;;3.90;0.90;;;;;;;11.05;68.86;100308.81;15798570;28;20036;-51
2024/03/02 18:26:16;;;;;;;1.13;0.47;;;;;;;10.53;70.95;100306.44;15768183;28;20397;-50
2024/03/02 18:33:56;;;;;;;1.20;0.93;;;;;;;10.70;70.49;100299.47;15802874;28;20055;-49
2024/03/02 18:41:29;;;;;;;3.83;1.63;;;;;;;10.32;71.80;100306.84;15782273;28;20052;-50
2024/03/02 18:49:04;;;;;;;;;;;;;;;10.63;70.72;100303.25;15802055;28;20047;-49
2024/03/02 18:56:37;;;;;;;0.60;0.60;;;;;;;10.29;71.76;100294.69;15804893;28;20022;-51
2024/03/02 19:04:13;;;;;;;1.95;0.50;;;;;;;10.53;71.71;100284.16;15803333;28;20094;-52
2024/03/02 19:11:47;;;;;;;1.08;1.02;;;;;;;10.77;70.21;100288.69;15798107;28;20455;-50
2024/03/02 19:19:24;;;;;;;1.25;1.10;;;;;;;10.54;71.00;100277.75;15797362;28;20530;-55
2024/03/02 19:27:00;;;;;;;0.50;0.50;;;;;;;10.67;69.78;100269.56;15766457;28;20052;-52
2024/03/02 19:34:35;;;;;;;2.58;1.98;;;;;;;10.37;69.82;100269.44;15757192;28;20043;-51
2024/03/02 19:42:09;;;;;;;2.00;1.90;;;;;;;9.01;76.67;100273.38;15768665;28;20047;-50
2024/03/02 19:49:45;;;;;;;3.05;2.47;;;;;;;9.25;76.54;100262.97;15751488;28;20106;-50
2024/03/02 19:57:19;;;;;;;3.25;1.25;;;;;;;9.62;75.11;100264.00;15744938;28;20040;-51
2024/03/02 20:04:54;;;;;;;0.85;0.85;;;;;;;8.82;78.79;100256.34;15771963;28;20048;-51
2024/03/02 20:12:28;;;;;;;0.82;0.82;;;;;;;9.05;78.68;100257.72;15725259;28;20066;-51
2024/03/02 20:20:03;;;;;;;0.50;0.47;;;;;;;9.52;76.89;100247.59;15794903;28;20431;-49
2024/03/02 20:27:36;;;;;;;0.75;0.75;;;;;;;9.41;77.50;100241.84;15745032;28;20280;-51
2024/03/02 20:35:12;;;;;;;2.25;2.05;;;;;;;9.77;75.64;100242.25;15791914;28;20113;-52
2024/03/02 20:42:45;;;;;;;1.20;1.15;;;;;;;9.34;77.65;100240.28;15770761;28;20051;-53
2024/03/02 20:50:23;;;;;;;1.48;1.38;;;;;;;9.39;77.45;100241.25;15760820;28;20045;-50
2024/03/02 20:57:59;;;;;;;33.05;1.88;;;;;;;9.38;77.82;100238.81;15748403;28;20040;-51
2024/03/02 21:05:34;;;;;;;2.05;1.25;;;;;;;9.30;77.96;100233.69;15773000;28;20040;-53
2024/03/02 21:13:08;;;;;;;1.38;1.27;;;;;;;9.39;78.08;100229.72;15798370;28;20097;-51
2024/03/02 21:20:45;;;;;;;2.47;2.17;;;;;;;9.51;77.03;100233.34;15808385;28;20493;-50
2024/03/02 21:28:19;;;;;;;1.10;0.85;;;;;;;9.24;78.45;100234.56;15805376;28;20040;-50
2024/03/02 21:35:54;;;;;;;0.63;0.60;;;;;;;8.80;80.42;100225.47;15753224;28;20058;-54
2024/03/02 21:43:28;;;;;;;0.57;0.52;;;;;;;8.83;80.32;100227.72;15758648;28;20044;-50
2024/03/02 21:51:08;;;;;;;4.13;1.33;;;;;;;8.65;80.18;100217.69;15773448;28;20406;-51
2024/03/02 21:58:42;;;;;;;5.60;1.70;;;;;;;8.30;83.09;100214.44;15757320;28;20040;-50
2024/03/02 22:06:19;;;;;;;1.33;1.20;;;;;;;7.96;84.10;100210.16;15742257;28;20051;-53
2024/03/02 22:13:54;;;;;;;4.35;2.45;;;;;;;7.87;83.57;100172.13;15790089;28;20055;-52
2024/03/02 22:21:29;;;;;;;0.38;0.38;;;;;;;7.62;85.88;100206.66;15789399;28;20075;-47
2024/03/02 22:29:03;;;;;;;1.63;1.52;;;;;;;7.70;86.38;100197.63;15797280;28;20162;-51
2024/03/02 22:36:38;;;;;;;1.92;1.77;;;;;;;7.47;86.57;100204.16;15796787;28;20043;-49
2024/03/02 22:44:13;;;;;;;1.90;0.95;;;;;;;8.11;84.37;100194.72;15769599;28;20085;-51
2024/03/02 22:51:47;;;;;;;;;;;;;;;7.92;84.73;100185.69;15769966;28;20070;-50
2024/03/02 22:59:24;;;;;;;2.08;1.75;;;;;;;7.93;84.18;100182.81;15783455;28;19966;-47
2024/03/02 23:06:59;;;;;;;0.35;0.35;;;;;;;8.58;81.06;100185.63;15789995;28;20040;-47
2024/03/02 23:14:34;;;;;;;0.95;0.73;;;;;;;8.19;81.76;100176.59;15800925;28;20131;-46
2024/03/02 23:22:11;;;;;;;1.52;1.42;;;;;;;8.19;81.79;100175.78;15764491;28;20049;-47
2024/03/02 23:29:45;;;;;;;0.45;0.40;;;;;;;8.06;82.71;100163.25;15743208;28;20144;-46
2024/03/02 23:37:24;;;;;;;2.55;1.75;;;;;;;8.02;82.69;100162.06;15741365;28;20554;-45
2024/03/02 23:44:59;;;;;;;0.88;0.85;;;;;;;8.04;82.40;100161.84;15767481;28;20032;-45
2024/03/02 23:52:33;;;;;;;;;;;;;;;8.21;81.76;100162.19;15739401;28;20407;-46
